Time;durP1;ratioP1;P1;durP2;ratioP2;P2;SDS_P1;SDS_P2;PMS_P1;PMS_P2;Temp;Humidity;BMP_temperature;BMP_pressure;BME280_temperature;BME280_humidity;BME280_pressure;Samples;Min_cycle;Max_cycle;Signal;HPM_P1;HPM_P2
2022/07/28 00:00:03;;;;;;;3.05;1.17;;;;;;;12.36;93.42;102133.03;4985940;28;20548;-85
2022/07/28 00:02:31;;;;;;;4.28;1.50;;;;;;;12.34;93.75;102137.53;4986420;28;20107;-86
2022/07/28 00:04:57;;;;;;;1.30;1.20;;;;;;;12.34;94.22;102137.53;4972100;28;20532;-85
2022/07/28 00:07:22;;;;;;;1.73;1.30;;;;;;;12.32;94.29;102136.69;4986867;28;20060;-87
2022/07/28 00:09:53;;;;;;;1.45;1.27;;;;;;;12.30;93.78;102138.56;4986777;28;20034;-86
2022/07/28 00:12:19;;;;;;;1.95;1.20;;;;;;;12.29;93.90;102133.28;4970011;28;20510;-85
2022/07/28 00:14:44;;;;;;;1.85;1.40;;;;;;;12.28;93.80;102136.84;4969605;28;20073;-85
2022/07/28 00:17:10;;;;;;;1.45;1.33;;;;;;;12.27;93.93;102130.69;4988505;28;20121;-85
2022/07/28 00:19:35;;;;;;;2.33;1.20;;;;;;;12.27;93.68;102135.13;4986171;28;20052;-84
2022/07/28 00:22:05;;;;;;;2.22;1.30;;;;;;;12.26;93.59;102134.25;4990097;28;20081;-85
2022/07/28 00:24:30;;;;;;;2.92;1.52;;;;;;;12.27;94.20;102130.69;4987606;28;20036;-86
2022/07/28 00:26:58;;;;;;;2.47;1.45;;;;;;;12.26;94.37;102126.28;4969700;28;20406;-89
2022/07/28 00:29:27;;;;;;;2.58;1.67;;;;;;;12.27;94.46;102125.38;4987353;28;20030;-85
2022/07/28 00:31:52;;;;;;;1.55;1.35;;;;;;;12.27;94.83;102129.81;4972388;28;20042;-86
2022/07/28 00:34:18;;;;;;;2.15;1.50;;;;;;;12.27;94.83;102128.03;4973902;28;20503;-85
2022/07/28 00:36:43;;;;;;;1.30;1.10;;;;;;;12.27;95.19;102125.38;4972503;28;20156;-85
2022/07/28 00:39:11;;;;;;;1.63;1.30;;;;;;;12.27;95.00;102128.03;4989176;28;20031;-85
2022/07/28 00:41:37;;;;;;;1.15;1.08;;;;;;;12.29;95.09;102120.88;4988219;28;20031;-85
2022/07/28 00:44:05;;;;;;;1.85;1.30;;;;;;;12.31;95.61;102131.47;4987629;28;20048;-84
2022/07/28 00:46:31;;;;;;;1.73;1.42;;;;;;;12.30;96.31;102130.59;4971081;28;20042;-84
2022/07/28 00:48:57;;;;;;;4.35;1.83;;;;;;;12.29;96.66;102128.84;4971125;28;20033;-84
2022/07/28 00:51:25;;;;;;;3.00;1.55;;;;;;;12.31;97.12;102120.84;4989555;28;20076;-86
2022/07/28 00:53:52;;;;;;;2.17;1.65;;;;;;;12.30;96.59;102125.28;4989706;28;21594;-85
2022/07/28 00:56:18;;;;;;;1.63;1.50;;;;;;;12.31;96.67;102120.84;4991772;28;20041;-85
2022/07/28 00:58:46;;;;;;;2.55;1.50;;;;;;;12.32;96.52;102119.91;4960612;28;20034;-85
2022/07/28 01:01:14;;;;;;;3.08;1.80;;;;;;;12.33;97.60;102127.81;4974917;28;20484;-85
2022/07/28 01:03:45;;;;;;;2.38;1.60;;;;;;;12.37;98.14;102123.31;4967902;28;20389;-85
2022/07/28 01:06:39;;;;;;;1.60;1.33;;;;;;;12.36;97.46;102122.41;4975998;28;20046;-85
2022/07/28 01:09:26;;;;;;;3.72;2.13;;;;;;;12.39;98.29;102128.53;4990703;28;20049;-83
2022/07/28 01:12:28;;;;;;;2.33;1.60;;;;;;;12.37;98.42;102120.66;4989698;28;20088;-83
2022/07/28 01:15:29;;;;;;;5.07;1.60;;;;;;;12.37;98.58;102125.97;4972671;28;20038;-86
2022/07/28 01:18:06;;;;;;;2.80;1.20;;;;;;;12.36;98.07;102118.88;4989368;28;20121;-85
2022/07/28 01:20:43;;;;;;;2.38;1.30;;;;;;;12.33;97.52;102125.16;4957706;28;20094;-84
2022/07/28 01:23:15;;;;;;;4.32;1.40;;;;;;;12.29;97.05;102120.88;4975424;28;20503;-86
2022/07/28 01:26:10;;;;;;;2.53;1.20;;;;;;;12.29;97.40;102126.19;4976961;28;20034;-84
2022/07/28 01:29:13;;;;;;;1.80;1.20;;;;;;;12.28;97.54;102112.97;4972790;28;20500;-84
2022/07/28 01:31:58;;;;;;;1.20;1.10;;;;;;;12.24;97.06;102114.84;4989237;28;20115;-85
2022/07/28 01:34:31;;;;;;;2.17;1.10;;;;;;;12.26;97.02;102115.66;4955589;28;20610;-85
2022/07/28 01:37:09;;;;;;;2.65;1.20;;;;;;;12.25;97.17;102113.94;4989452;28;20033;-85
2022/07/28 01:39:36;;;;;;;2.75;1.38;;;;;;;12.26;97.51;102112.16;4979829;28;20030;-87
2022/07/28 01:42:04;;;;;;;1.33;1.13;;;;;;;12.25;97.80;102103.31;4955880;28;20050;-82
2022/07/28 01:44:31;;;;;;;4.13;1.60;;;;;;;12.24;97.46;102104.22;4992128;28;20068;-86
2022/07/28 01:46:58;;;;;;;4.20;1.30;;;;;;;12.24;97.79;102100.72;4974401;28;20065;-86
2022/07/28 01:49:25;;;;;;;1.70;1.38;;;;;;;12.24;97.93;102103.38;4944119;28;20034;-85
2022/07/28 01:51:52;;;;;;;2.55;1.48;;;;;;;12.24;98.16;102103.38;4963749;28;20610;-84
2022/07/28 01:54:18;;;;;;;1.38;1.23;;;;;;;12.23;97.83;102102.50;4980523;28;20030;-86
2022/07/28 01:56:45;;;;;;;1.60;1.40;;;;;;;12.22;97.43;102098.97;4992248;28;20386;-85
2022/07/28 01:59:11;;;;;;;2.47;1.55;;;;;;;12.20;97.80;102098.16;4991059;28;20529;-86
2022/07/28 02:01:41;;;;;;;2.72;1.50;;;;;;;12.20;98.12;102094.66;4991291;28;20137;-85
2022/07/28 02:04:08;;;;;;;2.47;1.75;;;;;;;12.16;98.36;102093.00;4966318;28;20447;-86
2022/07/28 02:06:34;;;;;;;1.85;1.48;;;;;;;12.14;98.29;102094.84;4990651;28;20050;-86
2022/07/28 02:09:01;;;;;;;3.05;1.50;;;;;;;12.12;98.54;102099.31;4973036;28;20611;-85
2022/07/28 02:11:40;;;;;;;2.13;1.70;;;;;;;12.09;98.77;102095.84;4974666;28;20035;-84
2022/07/28 02:14:25;;;;;;;2.05;1.70;;;;;;;12.07;99.84;102088.84;4987442;28;20462;-84
2022/07/28 02:16:56;;;;;;;2.88;1.60;;;;;;;12.05;99.66;102088.88;4972991;28;20038;-85
2022/07/28 02:19:22;;;;;;;2.20;1.48;;;;;;;12.07;100.00;102086.19;4975389;28;20370;-83
2022/07/28 02:21:49;;;;;;;3.28;1.98;;;;;;;12.06;99.99;102081.81;4971707;28;20041;-84
2022/07/28 02:24:18;;;;;;;3.33;1.65;;;;;;;12.03;100.00;102079.19;4981348;28;20038;-85
2022/07/28 02:26:48;;;;;;;3.85;1.70;;;;;;;12.02;100.00;102082.78;4991225;28;20038;-84
2022/07/28 02:29:16;;;;;;;1.85;1.23;;;;;;;11.98;100.00;102089.97;4988742;28;20075;-85
2022/07/28 02:31:50;;;;;;;1.70;1.40;;;;;;;11.95;99.72;102088.28;4988058;28;20026;-82
2022/07/28 02:34:25;;;;;;;1.58;1.05;;;;;;;11.96;99.45;102083.84;4975711;28;20705;-85
2022/07/28 02:36:58;;;;;;;1.92;1.25;;;;;;;11.94;99.44;102085.69;4972879;28;20034;-84
2022/07/28 02:39:28;;;;;;;1.95;1.25;;;;;;;11.92;99.16;102071.56;4971889;28;20173;-85
2022/07/28 02:42:22;;;;;;;1.05;1.02;;;;;;;11.92;99.52;102082.19;4972816;28;20470;-84
2022/07/28 02:44:56;;;;;;;1.63;1.40;;;;;;;11.90;99.52;102074.31;4974554;28;20131;-83
2022/07/28 02:47:23;;;;;;;2.45;1.30;;;;;;;11.90;99.43;102074.31;4956513;28;20030;-85
2022/07/28 02:49:50;;;;;;;2.47;1.35;;;;;;;11.88;98.75;102075.25;4973689;28;20034;-84
2022/07/28 02:52:25;;;;;;;1.42;1.30;;;;;;;11.84;98.95;102071.84;4992486;28;20397;-83
2022/07/28 02:54:58;;;;;;;1.95;1.42;;;;;;;11.82;99.06;102071.00;4956022;28;20052;-84
2022/07/28 02:57:23;;;;;;;;;;;;;;;11.83;100.00;102067.44;4956633;28;20048;-84
2022/07/28 02:59:50;;;;;;;1.88;1.45;;;;;;;11.80;99.87;102073.72;4972923;28;19917;-84
2022/07/28 03:02:20;;;;;;;3.38;1.70;;;;;;;11.82;100.00;102079.84;4973185;28;20030;-84
2022/07/28 03:04:57;;;;;;;3.28;1.70;;;;;;;11.82;100.00;102077.19;4972433;28;20563;-86
2022/07/28 03:07:27;;;;;;;4.28;1.60;;;;;;;11.79;99.91;102077.28;4990003;28;20486;-86
2022/07/28 03:09:53;;;;;;;2.30;1.92;;;;;;;11.79;100.00;102069.34;4990969;28;20034;-84
2022/07/28 03:12:19;;;;;;;2.45;1.85;;;;;;;11.79;100.00;102077.28;4964519;28;20045;-83
2022/07/28 03:14:45;;;;;;;2.33;1.65;;;;;;;11.80;100.00;102076.38;4956784;28;20034;-85
2022/07/28 03:17:10;;;;;;;2.10;1.63;;;;;;;11.79;100.00;102073.75;4972545;28;20468;-85
2022/07/28 03:19:36;;;;;;;1.95;1.75;;;;;;;11.78;100.00;102080.84;4972975;28;20030;-86
2022/07/28 03:22:02;;;;;;;4.47;2.05;;;;;;;11.77;100.00;102073.78;4975657;28;20034;-85
2022/07/28 03:24:30;;;;;;;2.15;1.77;;;;;;;11.76;100.00;102073.88;4989043;28;20075;-85
2022/07/28 03:27:27;;;;;;;2.55;1.80;;;;;;;11.74;100.00;102073.91;4976030;28;20099;-84
2022/07/28 03:29:58;;;;;;;2.60;1.98;;;;;;;11.71;100.00;102071.31;4967797;28;20048;-86
2022/07/28 03:32:26;;;;;;;2.15;1.95;;;;;;;11.68;100.00;102076.75;4975262;28;20465;-85
2022/07/28 03:34:52;;;;;;;4.28;1.90;;;;;;;11.64;100.00;102075.09;4949920;28;20026;-85
2022/07/28 03:37:26;;;;;;;3.47;2.10;;;;;;;11.66;100.00;102081.25;4991663;28;20117;-85
2022/07/28 03:39:53;;;;;;;2.45;2.25;;;;;;;11.64;100.00;102081.28;4989785;28;20976;-85
2022/07/28 03:42:20;;;;;;;2.17;1.80;;;;;;;11.61;100.00;102089.31;4974288;28;20026;-85
2022/07/28 03:44:49;;;;;;;2.88;1.80;;;;;;;11.60;100.00;102078.78;4973966;28;20169;-84
2022/07/28 03:47:20;;;;;;;4.28;1.67;;;;;;;11.62;100.00;102090.19;4989633;28;20057;-84
2022/07/28 03:49:45;;;;;;;2.03;1.83;;;;;;;11.59;100.00;102087.66;4949301;28;20025;-86
2022/07/28 03:52:11;;;;;;;2.17;1.70;;;;;;;11.55;100.00;102087.72;4973536;28;20065;-86
2022/07/28 03:54:36;;;;;;;2.38;1.95;;;;;;;11.55;100.00;102095.69;4975249;28;20026;-85
2022/07/28 03:57:02;;;;;;;1.85;1.65;;;;;;;11.55;100.00;102105.41;4972532;28;20802;-85
2022/07/28 03:59:27;;;;;;;2.40;2.20;;;;;;;11.58;100.00;102094.72;4971492;28;20095;-84
2022/07/28 04:01:55;;;;;;;5.07;2.35;;;;;;;11.60;100.00;102094.69;4972750;28;20530;-86
2022/07/28 04:04:21;;;;;;;3.28;2.30;;;;;;;11.58;100.00;102096.50;4957716;28;20138;-85
2022/07/28 04:06:47;;;;;;;3.35;2.00;;;;;;;11.58;100.00;102101.78;4991513;28;20051;-84
2022/07/28 04:09:14;;;;;;;2.85;2.30;;;;;;;11.55;100.00;102095.69;4990380;28;20037;-84
2022/07/28 04:11:40;;;;;;;3.90;2.08;;;;;;;11.55;100.00;102093.03;4989934;28;20030;-83
2022/07/28 04:14:06;;;;;;;3.03;2.10;;;;;;;11.55;100.00;102095.69;4955397;28;20104;-85
2022/07/28 04:16:32;;;;;;;2.22;1.83;;;;;;;11.54;100.00;102093.06;4971579;28;20128;-85
2022/07/28 04:19:00;;;;;;;3.47;2.28;;;;;;;11.54;100.00;102093.94;4982269;28;20092;-85
2022/07/28 04:21:26;;;;;;;2.17;1.70;;;;;;;11.54;100.00;102098.38;4989405;28;20026;-84
2022/07/28 04:23:51;;;;;;;2.90;2.00;;;;;;;11.55;100.00;102105.41;4973802;28;20026;-85
2022/07/28 04:26:20;;;;;;;1.55;1.33;;;;;;;11.54;100.00;102101.91;4980355;28;20457;-83
2022/07/28 04:28:46;;;;;;;2.40;1.55;;;;;;;11.53;100.00;102105.47;4988245;28;20022;-84
2022/07/28 04:31:11;;;;;;;1.30;1.20;;;;;;;11.54;100.00;102114.28;4957712;28;20034;-85
2022/07/28 04:33:37;;;;;;;1.55;1.30;;;;;;;11.55;100.00;102106.28;4993854;28;20037;-84
2022/07/28 04:36:03;;;;;;;1.98;1.50;;;;;;;11.58;100.00;102113.28;4975196;28;20519;-83
2022/07/28 04:38:29;;;;;;;1.60;1.40;;;;;;;11.61;100.00;102109.69;4972979;28;20533;-84
2022/07/28 04:40:57;;;;;;;2.88;1.80;;;;;;;11.63;100.00;102108.72;4962645;28;20036;-87
2022/07/28 04:43:23;;;;;;;3.05;2.00;;;;;;;11.63;100.00;102108.72;4992036;28;20063;-86
2022/07/28 04:45:52;;;;;;;3.70;2.40;;;;;;;11.62;100.00;102108.75;4992577;28;20069;-89
2022/07/28 04:48:20;;;;;;;2.00;1.80;;;;;;;11.59;100.00;102108.88;4955007;28;20053;-84
2022/07/28 04:50:51;;;;;;;2.75;2.03;;;;;;;11.57;100.00;102110.66;4975347;28;20041;-85
2022/07/28 04:53:17;;;;;;;2.80;2.08;;;;;;;11.54;100.00;102115.16;4974955;28;20038;-85
2022/07/28 04:55:43;;;;;;;2.97;2.13;;;;;;;11.53;100.00;102108.13;4973436;28;20049;-85
2022/07/28 04:58:08;;;;;;;3.05;2.10;;;;;;;11.53;100.00;102116.06;4994960;28;20470;-85
2022/07/28 05:00:37;;;;;;;2.83;2.08;;;;;;;11.56;100.00;102115.13;4976074;28;20098;-84
2022/07/28 05:03:03;;;;;;;2.40;1.88;;;;;;;11.58;100.00;102121.25;4974123;28;20038;-83
2022/07/28 05:05:29;;;;;;;3.35;1.90;;;;;;;11.60;100.00;102113.25;4993635;28;20397;-89
2022/07/28 05:07:54;;;;;;;1.98;1.70;;;;;;;11.64;100.00;102117.53;4993525;28;20044;-86
2022/07/28 05:10:20;;;;;;;2.80;2.20;;;;;;;11.68;100.00;102117.38;4959191;28;20057;-85
2022/07/28 05:12:48;;;;;;;2.15;1.90;;;;;;;11.75;100.00;102118.09;4959602;28;20084;-83
2022/07/28 05:15:16;;;;;;;2.33;2.13;;;;;;;11.85;100.00;102110.72;4992078;28;20030;-85
2022/07/28 05:17:41;;;;;;;2.15;1.73;;;;;;;11.99;100.00;102112.94;4992350;28;20036;-84
2022/07/28 05:20:07;;;;;;;2.55;1.90;;;;;;;12.09;100.00;102117.06;4992504;28;20034;-85
2022/07/28 05:22:45;;;;;;;2.85;2.20;;;;;;;12.19;100.00;102119.44;4978132;28;20097;-86
2022/07/28 05:25:19;;;;;;;1.98;1.70;;;;;;;12.32;100.00;102122.56;4961211;28;20034;-84
2022/07/28 05:27:45;;;;;;;2.17;1.65;;;;;;;12.42;100.00;102128.47;4963964;28;20038;-85
2022/07/28 05:30:11;;;;;;;1.77;1.52;;;;;;;12.53;100.00;102126.28;4976310;28;20049;-84
2022/07/28 05:32:37;;;;;;;1.77;1.50;;;;;;;12.65;100.00;102118.84;4992919;28;20101;-85
2022/07/28 05:35:04;;;;;;;1.95;1.70;;;;;;;12.74;100.00;102121.19;4982481;28;20395;-84
2022/07/28 05:37:32;;;;;;;2.58;1.60;;;;;;;12.81;100.00;102116.53;4981767;28;20038;-85
2022/07/28 05:39:58;;;;;;;3.65;1.73;;;;;;;12.85;100.00;102129.66;4976247;28;20041;-85
2022/07/28 05:42:27;;;;;;;1.73;1.60;;;;;;;12.96;100.00;102125.78;4991337;28;20033;-85
2022/07/28 05:44:52;;;;;;;1.98;1.77;;;;;;;13.06;100.00;102129.81;4943238;28;20038;-84
2022/07/28 05:47:18;;;;;;;2.13;1.60;;;;;;;13.15;100.00;102128.63;4989209;28;20132;-84
2022/07/28 05:49:43;;;;;;;2.53;1.50;;;;;;;13.26;100.00;102121.16;4986449;28;20034;-84
2022/07/28 05:52:09;;;;;;;1.70;1.60;;;;;;;13.39;100.00;102126.88;4988225;28;20049;-84
2022/07/28 05:54:34;;;;;;;2.03;1.83;;;;;;;13.53;100.00;102133.50;4973782;28;20033;-88
2022/07/28 05:57:00;;;;;;;2.25;1.70;;;;;;;13.64;100.00;102125.09;4974367;28;20484;-85
2022/07/28 05:59:26;;;;;;;3.75;1.77;;;;;;;13.77;100.00;102125.53;4960105;28;20105;-86
2022/07/28 06:01:51;;;;;;;1.90;1.33;;;;;;;13.95;100.00;102132.78;4963272;28;20085;-84
2022/07/28 06:04:17;;;;;;;2.30;1.60;;;;;;;14.21;100.00;102127.34;4993686;28;20051;-86
2022/07/28 06:06:43;;;;;;;2.90;1.45;;;;;;;14.45;100.00;102137.94;4975057;28;20042;-85
2022/07/28 06:09:08;;;;;;;1.33;1.10;;;;;;;14.69;100.00;102130.69;4973360;28;20041;-85
2022/07/28 06:11:34;;;;;;;3.00;1.35;;;;;;;14.93;100.00;102126.13;4960197;28;20027;-85
2022/07/28 06:13:59;;;;;;;1.45;1.02;;;;;;;15.20;100.00;102135.69;4972565;28;20034;-81
2022/07/28 06:16:25;;;;;;;0.93;0.80;;;;;;;15.47;100.00;102125.53;4977187;28;20030;-86
2022/07/28 06:18:54;;;;;;;0.95;0.80;;;;;;;15.72;100.00;102131.53;4994387;28;20167;-84
2022/07/28 06:21:22;;;;;;;2.75;1.00;;;;;;;15.79;97.55;102132.97;4992803;28;20117;-87
2022/07/28 06:23:47;;;;;;;1.20;1.10;;;;;;;15.78;95.59;102131.25;4994155;28;20034;-87
2022/07/28 06:26:13;;;;;;;1.48;1.05;;;;;;;15.83;95.09;102129.25;4992300;28;20367;-87
2022/07/28 06:28:38;;;;;;;0.75;0.68;;;;;;;15.94;94.28;102133.22;4993639;28;20049;-85
2022/07/28 06:31:07;;;;;;;1.00;0.80;;;;;;;16.12;93.07;102135.00;4977006;28;20462;-85
2022/07/28 06:33:32;;;;;;;3.40;0.70;;;;;;;16.22;92.14;102129.22;4992789;28;20160;-86
2022/07/28 06:35:58;;;;;;;2.35;0.60;;;;;;;16.35;91.41;102127.66;4975991;28;20113;-86
2022/07/28 06:38:24;;;;;;;1.80;0.60;;;;;;;16.48;90.34;102129.72;4993614;28;20057;-86
2022/07/28 06:40:49;;;;;;;0.98;0.70;;;;;;;16.67;89.71;102129.69;4973439;28;20046;-85
2022/07/28 06:43:15;;;;;;;1.75;0.80;;;;;;;16.86;88.80;102123.38;4987270;28;20068;-82
2022/07/28 06:45:40;;;;;;;0.55;0.52;;;;;;;16.96;88.18;102125.47;4987957;28;20034;-86
2022/07/28 06:48:09;;;;;;;0.60;0.60;;;;;;;17.02;87.19;102139.53;4989131;28;20049;-85
2022/07/28 06:50:37;;;;;;;0.82;0.70;;;;;;;16.99;86.39;102131.63;4959689;28;20136;-84
2022/07/28 06:53:03;;;;;;;1.77;0.75;;;;;;;16.95;86.29;102129.09;4990108;28;20041;-85
2022/07/28 06:55:29;;;;;;;1.58;0.60;;;;;;;16.93;85.97;102131.00;4991477;28;20030;-87
2022/07/28 06:57:56;;;;;;;1.65;0.60;;;;;;;16.90;85.89;102132.97;4992803;28;20042;-87
2022/07/28 07:00:21;;;;;;;0.95;0.60;;;;;;;16.91;85.31;102135.56;4973341;28;20029;-86
2022/07/28 07:12:17;;;;;;;0.57;0.50;;;;;;;16.93;81.99;102131.00;4898196;29;20099;-81
2022/07/28 07:14:42;;;;;;;2.20;0.70;;;;;;;16.96;83.37;102127.31;4914329;29;20078;-80
2022/07/28 07:17:08;;;;;;;1.75;0.77;;;;;;;16.96;83.47;102130.84;4908853;29;20441;-80
2022/07/28 07:19:33;;;;;;;1.77;0.80;;;;;;;16.97;83.01;102124.56;4891978;29;20208;-80
2022/07/28 07:21:59;;;;;;;1.50;0.80;;;;;;;16.97;82.72;102132.59;4900710;29;20065;-79
2022/07/28 07:24:25;;;;;;;2.65;1.08;;;;;;;17.03;82.38;102130.53;4911793;29;20044;-80
2022/07/28 07:26:50;;;;;;;1.17;1.05;;;;;;;17.06;82.58;102130.41;4899647;29;20058;-79
2022/07/28 07:29:16;;;;;;;2.83;0.75;;;;;;;17.12;81.96;102126.53;4894632;29;20036;-79
2022/07/28 07:31:41;;;;;;;2.53;1.30;;;;;;;17.21;81.54;102134.94;4886106;29;20048;-79
2022/07/28 07:34:07;;;;;;;2.08;0.77;;;;;;;17.31;81.49;102127.28;4910344;29;20035;-81
2022/07/28 07:36:32;;;;;;;0.95;0.60;;;;;;;17.51;81.21;102130.69;4902989;29;20063;-82
2022/07/28 07:38:58;;;;;;;6.95;2.67;;;;;;;17.75;80.43;102131.13;4935588;29;20028;-83
2022/07/28 07:41:25;;;;;;;1.38;0.85;;;;;;;17.71;79.59;102126.88;4935638;29;20035;-81
2022/07/28 07:43:50;;;;;;;3.33;0.90;;;;;;;17.61;79.76;102121.19;4894610;29;20062;-80
2022/07/28 07:46:16;;;;;;;6.50;2.85;;;;;;;17.62;79.98;102122.06;4918572;29;20036;-81
2022/07/28 07:48:42;;;;;;;2.90;1.00;;;;;;;17.64;79.46;102125.50;4899050;29;20629;-80
2022/07/28 07:51:08;;;;;;;0.85;0.60;;;;;;;17.64;79.45;102122.81;4911949;29;20130;-81
2022/07/28 07:53:34;;;;;;;1.50;0.70;;;;;;;17.61;78.83;102125.69;4894576;29;20443;-80
2022/07/28 07:55:59;;;;;;;0.70;0.70;;;;;;;17.62;78.90;102124.72;4898042;29;20455;-79
2022/07/28 07:58:28;;;;;;;1.20;0.60;;;;;;;17.64;78.31;102122.81;4895047;29;20422;-81
2022/07/28 08:00:54;;;;;;;0.50;0.50;;;;;;;17.63;78.33;102113.94;4912358;29;20387;-82
2022/07/28 08:03:20;;;;;;;1.30;0.70;;;;;;;17.62;77.93;102122.06;4894277;29;20397;-77
2022/07/28 08:05:45;;;;;;;1.33;1.05;;;;;;;17.59;77.85;102122.25;4914556;29;20041;-81
2022/07/28 08:08:11;;;;;;;1.15;0.73;;;;;;;17.63;77.69;102121.97;4878919;29;20043;-80
2022/07/28 08:10:38;;;;;;;5.65;2.53;;;;;;;17.64;77.17;102114.78;4895647;29;20050;-80
2022/07/28 08:13:05;;;;;;;1.17;0.70;;;;;;;17.59;77.02;102116.88;4900755;29;20055;-80
2022/07/28 08:15:31;;;;;;;1.95;0.82;;;;;;;17.60;76.66;102118.59;4881950;29;20046;-80
2022/07/28 08:17:56;;;;;;;2.60;1.00;;;;;;;17.55;76.38;102118.00;4895663;29;20048;-85
2022/07/28 08:20:22;;;;;;;1.02;0.60;;;;;;;17.38;76.74;102112.59;4881853;29;20035;-85
2022/07/28 08:22:53;;;;;;;1.23;0.82;;;;;;;17.37;76.35;102110.00;4910904;29;20095;-85
2022/07/28 08:25:19;;;;;;;1.35;0.60;;;;;;;17.37;76.58;102123.38;4895238;29;20158;-81
2022/07/28 08:27:45;;;;;;;0.73;0.60;;;;;;;17.38;77.18;102127.81;4895682;29;20123;-85
2022/07/28 08:30:13;;;;;;;0.60;0.60;;;;;;;17.40;76.52;102117.88;4913606;29;20105;-86
2022/07/28 08:32:39;;;;;;;1.30;0.70;;;;;;;17.37;76.24;102118.03;4897448;29;20055;-85
2022/07/28 08:35:05;;;;;;;1.23;0.60;;;;;;;17.36;76.41;102122.53;4895129;29;20438;-86
2022/07/28 08:37:31;;;;;;;3.50;0.60;;;;;;;17.38;76.71;102120.63;4883020;29;20477;-84
2022/07/28 08:39:56;;;;;;;1.77;0.50;;;;;;;17.44;75.87;102114.06;4884584;29;20040;-83
2022/07/28 08:42:30;;;;;;;1.10;0.80;;;;;;;17.36;75.22;102111.84;4911775;29;20123;-84
2022/07/28 08:45:04;;;;;;;1.48;0.90;;;;;;;17.33;75.47;102111.13;4879633;29;20384;-85
2022/07/28 08:47:31;;;;;;;2.28;0.90;;;;;;;17.34;76.18;102107.50;4910634;29;20043;-84
2022/07/28 08:50:00;;;;;;;2.08;0.70;;;;;;;17.39;75.95;102113.50;4885978;29;20466;-82
2022/07/28 08:52:30;;;;;;;1.88;0.60;;;;;;;17.35;75.34;102119.94;4878373;29;20020;-82
2022/07/28 08:55:01;;;;;;;0.50;0.50;;;;;;;17.33;75.42;102112.00;4901465;29;20036;-80
2022/07/28 08:57:31;;;;;;;1.17;0.60;;;;;;;17.29;75.22;102113.13;4899856;29;20106;-87
2022/07/28 08:59:57;;;;;;;0.57;0.50;;;;;;;17.24;75.82;102110.69;4869204;29;20040;-82
2022/07/28 09:02:25;;;;;;;1.75;0.60;;;;;;;17.16;75.79;102107.53;4880472;29;20043;-86
2022/07/28 09:04:53;;;;;;;1.15;0.63;;;;;;;17.08;74.97;102112.44;4882197;29;20043;-84
2022/07/28 09:07:19;;;;;;;1.33;0.70;;;;;;;17.01;75.56;102111.00;4902704;29;20032;-84
2022/07/28 09:09:47;;;;;;;0.70;0.60;;;;;;;17.02;75.13;102116.31;4895391;29;20040;-85
2022/07/28 09:12:13;;;;;;;1.05;0.70;;;;;;;17.06;75.13;102117.88;4882197;29;20068;-84
2022/07/28 09:14:39;;;;;;;1.65;0.90;;;;;;;17.13;75.15;102105.03;4916029;29;20155;-84
2022/07/28 09:17:05;;;;;;;0.70;0.70;;;;;;;17.19;74.45;102111.88;4886738;29;20270;-85
2022/07/28 09:19:31;;;;;;;1.52;0.70;;;;;;;17.34;74.29;102113.72;4904131;29;20873;-78
2022/07/28 09:22:03;;;;;;;0.50;0.50;;;;;;;17.71;74.03;102101.94;4913472;29;20036;-77
2022/07/28 09:24:43;;;;;;;1.85;0.70;;;;;;;18.05;73.69;102094.69;4914997;29;20486;-78
2022/07/28 09:27:10;;;;;;;0.68;0.60;;;;;;;18.34;74.37;102096.66;4901814;29;20057;-78
2022/07/28 09:29:38;;;;;;;0.70;0.70;;;;;;;18.55;73.72;102102.53;4899514;29;20039;-78
2022/07/28 09:32:04;;;;;;;0.57;0.57;;;;;;;18.67;73.05;102098.25;4912670;29;20123;-79
2022/07/28 09:34:40;;;;;;;0.95;0.77;;;;;;;18.96;71.28;102103.69;4896395;29;20047;-79
2022/07/28 09:37:25;;;;;;;1.90;0.80;;;;;;;19.12;71.21;102095.59;4887470;29;20042;-78
2022/07/28 09:39:53;;;;;;;0.68;0.55;;;;;;;19.16;71.64;102098.94;4881775;29;20043;-78
2022/07/28 09:42:19;;;;;;;0.85;0.63;;;;;;;19.02;70.66;102097.97;4896982;29;20043;-79
2022/07/28 09:44:45;;;;;;;0.70;0.57;;;;;;;18.98;70.80;102102.66;4895241;29;20047;-79
2022/07/28 09:47:22;;;;;;;0.63;0.60;;;;;;;18.99;68.40;102103.50;4895858;29;20032;-79
2022/07/28 09:49:48;;;;;;;0.75;0.68;;;;;;;18.85;69.69;102115.09;4897256;29;20040;-79
2022/07/28 09:52:26;;;;;;;0.70;0.70;;;;;;;18.69;68.11;102107.09;4880688;29;20526;-79
2022/07/28 09:55:03;;;;;;;0.90;0.80;;;;;;;18.49;68.03;102111.81;4887135;29;20036;-78
2022/07/28 09:57:29;;;;;;;1.33;0.80;;;;;;;18.40;69.31;102105.19;4911955;29;20036;-78
2022/07/28 09:59:56;;;;;;;0.70;0.70;;;;;;;18.45;69.94;102102.22;4897132;29;20564;-78
2022/07/28 10:02:48;;;;;;;1.75;0.80;;;;;;;18.52;68.66;102105.41;4911660;29;20036;-78
2022/07/28 10:05:15;;;;;;;1.08;0.80;;;;;;;18.62;69.77;102103.06;4913914;29;20444;-78
2022/07/28 10:07:49;;;;;;;1.00;0.80;;;;;;;18.66;68.40;102091.16;4911221;29;20162;-79
2022/07/28 10:10:19;;;;;;;1.23;0.60;;;;;;;18.63;68.53;102081.47;4892915;29;20134;-77
2022/07/28 10:12:44;;;;;;;0.50;0.50;;;;;;;18.59;68.21;102094.22;4911735;29;20048;-81
2022/07/28 10:18:00;;;;;;;0.73;0.57;;;;;;;18.51;67.74;102088.47;4896404;29;20699;-80
2022/07/28 10:20:27;;;;;;;0.68;0.65;;;;;;;18.48;68.11;102077.94;4911384;29;20487;-79
2022/07/28 10:22:58;;;;;;;0.60;0.60;;;;;;;18.48;67.72;102082.41;4895776;29;20031;-81
2022/07/28 10:25:25;;;;;;;1.25;0.75;;;;;;;18.49;67.72;102082.34;4913033;29;21561;-80
2022/07/28 10:27:51;;;;;;;0.70;0.70;;;;;;;18.61;67.93;102079.88;4912834;29;20043;-80
2022/07/28 10:30:17;;;;;;;2.63;0.70;;;;;;;18.83;67.10;102077.59;4912054;29;20039;-78
2022/07/28 10:32:44;;;;;;;0.98;0.88;;;;;;;18.90;66.67;102074.56;4897206;29;20482;-83
2022/07/28 10:35:14;;;;;;;3.90;0.73;;;;;;;19.04;66.98;102074.59;4869692;29;20564;-81
2022/07/28 10:38:00;;;;;;;0.88;0.55;;;;;;;19.16;65.64;102081.00;4904516;29;20294;-79
2022/07/28 10:40:28;;;;;;;0.90;0.68;;;;;;;18.99;66.16;102084.72;4901569;29;20048;-81
2022/07/28 10:42:55;;;;;;;0.52;0.52;;;;;;;18.91;66.29;102084.31;4901102;29;20039;-82
2022/07/28 10:45:21;;;;;;;0.70;0.70;;;;;;;18.86;66.36;102085.47;4898532;29;20071;-83
2022/07/28 10:47:47;;;;;;;1.70;0.80;;;;;;;18.81;66.38;102081.34;4895293;29;20027;-81
2022/07/28 10:50:14;;;;;;;1.10;0.90;;;;;;;18.73;67.08;102074.63;4888880;29;20032;-83
2022/07/28 10:52:40;;;;;;;0.75;0.70;;;;;;;18.72;66.87;102072.03;4895335;29;20055;-84
2022/07/28 10:55:19;;;;;;;1.05;0.60;;;;;;;18.69;66.91;102074.91;4897579;29;20065;-82
2022/07/28 10:58:03;;;;;;;2.92;0.80;;;;;;;18.70;65.83;102073.94;4881933;29;20036;-81
2022/07/28 11:00:29;;;;;;;0.70;0.70;;;;;;;18.59;65.97;102066.56;4894385;29;20501;-82
2022/07/28 11:03:02;;;;;;;0.88;0.70;;;;;;;18.55;66.00;102073.91;4902707;29;20066;-82
2022/07/28 11:05:35;;;;;;;1.23;0.82;;;;;;;18.51;66.38;102075.06;4922713;29;20035;-83
2022/07/28 11:08:04;;;;;;;1.15;0.70;;;;;;;18.53;66.77;102072.28;4912963;29;20039;-84
2022/07/28 11:10:47;;;;;;;0.98;0.90;;;;;;;18.52;65.65;102074.09;4911032;29;20059;-84
2022/07/28 11:13:31;;;;;;;1.00;0.80;;;;;;;18.51;65.34;102076.88;4889349;29;20047;-86
2022/07/28 11:16:17;;;;;;;1.15;1.05;;;;;;;18.56;65.72;102080.13;4897158;29;20070;-83
2022/07/28 11:19:09;;;;;;;0.60;0.60;;;;;;;18.59;65.60;102069.25;4903174;29;20039;-83
2022/07/28 11:21:35;;;;;;;0.93;0.70;;;;;;;18.64;66.57;102071.63;4913189;29;20028;-82
2022/07/28 11:24:01;;;;;;;1.02;0.73;;;;;;;18.65;67.02;102073.34;4896415;29;20050;-81
2022/07/28 11:26:35;;;;;;;0.73;0.73;;;;;;;18.72;66.78;102066.66;4897363;29;20754;-81
2022/07/28 11:29:07;;;;;;;1.00;0.90;;;;;;;18.75;66.18;102069.19;4880895;29;20502;-81
2022/07/28 11:34:21;;;;;;;0.95;0.60;;;;;;;18.54;66.03;102072.19;4911916;29;20483;-82
2022/07/28 11:37:03;;;;;;;0.75;0.75;;;;;;;18.46;65.97;102064.59;4913139;29;20032;-82
2022/07/28 11:39:32;;;;;;;0.90;0.90;;;;;;;18.44;66.74;102071.88;4900432;29;20516;-81
2022/07/28 11:41:58;;;;;;;0.77;0.75;;;;;;;18.36;66.69;102073.28;4909709;29;20661;-82
2022/07/28 11:44:24;;;;;;;1.00;0.90;;;;;;;18.27;67.10;102072.88;4912908;29;20106;-80